createdAt,value
2023-05-23T00:02:13.294Z,20.42
2023-05-23T00:04:43.147Z,20.18
2023-05-23T00:07:10.577Z,20.46
2023-05-23T00:09:37.817Z,20.53
2023-05-23T00:12:07.635Z,20.24
2023-05-23T00:14:40.291Z,20.21
2023-05-23T00:17:10.740Z,20.41
2023-05-23T00:19:41.628Z,20.33
2023-05-23T00:22:09.613Z,20.14
2023-05-23T00:24:38.825Z,20.14
2023-05-23T00:27:05.965Z,20.30
2023-05-23T00:29:35.243Z,20.04
2023-05-23T00:32:04.652Z,19.91
2023-05-23T00:34:31.697Z,19.49
2023-05-23T00:36:58.764Z,19.55
2023-05-23T00:39:26.997Z,19.53
2023-05-23T00:41:54.081Z,19.35
2023-05-23T00:44:22.072Z,19.69
2023-05-23T00:46:58.958Z,19.68
2023-05-23T00:49:28.617Z,19.77
2023-05-23T00:51:56.011Z,19.91
2023-05-23T00:54:31.274Z,20.06
2023-05-23T00:57:00.926Z,20.19
2023-05-23T00:59:30.483Z,20.01
2023-05-23T01:02:00.346Z,20.00
2023-05-23T01:04:29.590Z,19.94
2023-05-23T01:07:00.812Z,19.96
2023-05-23T01:09:29.271Z,19.91
2023-05-23T01:12:23.829Z,19.69
2023-05-23T01:15:11.058Z,19.85
2023-05-23T01:18:16.619Z,20.04
2023-05-23T01:20:52.878Z,20.09
2023-05-23T01:23:59.452Z,19.83
2023-05-23T01:26:54.292Z,19.87
2023-05-23T01:29:34.790Z,19.91
2023-05-23T01:32:04.805Z,19.93
2023-05-23T01:34:37.482Z,20.04
2023-05-23T01:37:14.820Z,19.98
2023-05-23T01:39:45.408Z,20.05
2023-05-23T01:42:13.483Z,19.89
2023-05-23T01:44:41.042Z,19.90
2023-05-23T01:47:10.042Z,19.80
2023-05-23T01:49:37.933Z,19.87
2023-05-23T01:52:05.902Z,19.97
2023-05-23T01:54:35.665Z,19.67
2023-05-23T01:57:05.887Z,19.63
2023-05-23T01:59:38.566Z,19.72
2023-05-23T02:02:05.961Z,19.72
2023-05-23T02:04:33.208Z,19.71
2023-05-23T02:07:00.310Z,19.81
2023-05-23T02:09:27.246Z,19.86
2023-05-23T02:11:54.347Z,19.77
2023-05-23T02:14:21.837Z,19.58
2023-05-23T02:16:53.998Z,19.65
2023-05-23T02:19:25.673Z,19.88
2023-05-23T02:21:57.455Z,19.82
2023-05-23T02:24:24.462Z,19.86
2023-05-23T02:26:52.602Z,19.79
2023-05-23T02:29:19.813Z,19.80
2023-05-23T02:31:49.271Z,19.91
2023-05-23T02:34:17.611Z,19.81
2023-05-23T02:36:44.654Z,19.86
2023-05-23T02:39:14.376Z,19.75
2023-05-23T02:41:41.619Z,19.79
2023-05-23T02:44:08.691Z,19.85
2023-05-23T02:46:35.776Z,19.84
2023-05-23T02:49:02.885Z,19.80
2023-05-23T02:51:29.819Z,19.56
2023-05-23T02:53:56.785Z,19.57
2023-05-23T02:56:23.795Z,19.57
2023-05-23T02:58:51.103Z,19.29
2023-05-23T03:01:18.847Z,19.35
2023-05-23T03:03:49.577Z,19.38
2023-05-23T03:06:17.165Z,19.45
2023-05-23T03:08:44.820Z,19.48
2023-05-23T03:11:11.866Z,19.51
2023-05-23T03:13:38.993Z,19.41
2023-05-23T03:16:06.454Z,19.48
2023-05-23T03:18:33.610Z,19.42
2023-05-23T03:21:00.624Z,19.57
2023-05-23T03:23:27.613Z,19.56
2023-05-23T03:25:54.603Z,19.39
2023-05-23T03:28:21.711Z,19.25
2023-05-23T03:30:48.726Z,19.36
2023-05-23T03:33:16.027Z,19.24
2023-05-23T03:35:44.702Z,19.24
2023-05-23T03:38:11.730Z,19.35
2023-05-23T03:40:38.797Z,19.41
2023-05-23T03:43:07.436Z,19.17
2023-05-23T03:45:37.941Z,19.10
2023-05-23T03:48:05.153Z,19.12
2023-05-23T03:50:32.290Z,19.22
2023-05-23T03:52:59.483Z,19.22
2023-05-23T03:55:34.571Z,19.39
2023-05-23T03:58:01.819Z,19.42
2023-05-23T04:00:31.138Z,19.34
2023-05-23T04:02:58.569Z,19.41
2023-05-23T04:05:26.430Z,19.54
2023-05-23T04:07:53.779Z,19.49
2023-05-23T04:10:20.863Z,19.36
2023-05-23T04:12:48.243Z,19.41
2023-05-23T04:15:15.506Z,19.40
2023-05-23T04:17:43.944Z,19.43
2023-05-23T04:20:13.597Z,19.33
2023-05-23T04:22:41.342Z,19.26
2023-05-23T04:25:09.556Z,19.23
2023-05-23T04:27:42.186Z,18.98
2023-05-23T04:30:10.183Z,19.07
2023-05-23T04:32:40.938Z,19.21
2023-05-23T04:35:13.611Z,19.15
2023-05-23T04:37:42.608Z,19.06
2023-05-23T04:40:13.588Z,18.97
2023-05-23T04:42:44.697Z,19.02
2023-05-23T04:45:15.377Z,18.76
2023-05-23T04:47:47.789Z,18.74
2023-05-23T04:50:18.466Z,18.77
2023-05-23T04:52:47.858Z,18.42
2023-05-23T04:55:14.936Z,18.49
2023-05-23T04:57:41.847Z,18.49
2023-05-23T05:00:12.849Z,18.65
2023-05-23T05:02:41.852Z,18.65
2023-05-23T05:05:09.549Z,18.47
2023-05-23T05:07:39.289Z,18.21
2023-05-23T05:10:16.949Z,18.24
2023-05-23T05:12:51.059Z,18.40
2023-05-23T05:15:19.545Z,18.44
2023-05-23T05:17:49.733Z,18.42
2023-05-23T05:20:19.536Z,18.36
2023-05-23T05:22:49.727Z,18.19
2023-05-23T05:25:19.088Z,18.37
2023-05-23T05:27:46.168Z,18.56
2023-05-23T05:30:13.915Z,18.48
2023-05-23T05:32:42.221Z,18.40
2023-05-23T05:35:10.137Z,18.30
2023-05-23T05:37:41.792Z,18.45
2023-05-23T05:40:10.017Z,18.44
2023-05-23T05:42:39.283Z,18.40
2023-05-23T05:45:11.512Z,18.32
2023-05-23T05:47:38.885Z,18.45
2023-05-23T05:50:08.823Z,18.57
2023-05-23T05:52:38.838Z,18.66
2023-05-23T05:55:11.502Z,18.55
2023-05-23T05:57:40.041Z,18.44
2023-05-23T06:00:14.804Z,18.36
2023-05-23T06:02:43.211Z,18.15
2023-05-23T06:05:17.019Z,18.11
2023-05-23T06:07:51.749Z,18.19
2023-05-23T06:10:21.383Z,18.32
2023-05-23T06:12:48.681Z,18.45
2023-05-23T06:15:16.217Z,18.48
2023-05-23T06:17:44.888Z,18.62
2023-05-23T06:20:12.459Z,18.43
2023-05-23T06:22:42.127Z,18.63
2023-05-23T06:25:09.441Z,18.52
2023-05-23T06:27:38.743Z,18.81
2023-05-23T06:30:06.773Z,18.69
2023-05-23T06:32:33.852Z,18.62
2023-05-23T06:35:00.801Z,18.67
2023-05-23T06:37:32.205Z,18.74
2023-05-23T06:39:59.244Z,18.58
2023-05-23T06:42:27.174Z,18.54
2023-05-23T06:44:54.178Z,18.55
2023-05-23T06:47:23.700Z,18.42
2023-05-23T06:49:50.778Z,18.31
2023-05-23T06:52:20.425Z,18.32
2023-05-23T06:54:51.148Z,18.38
2023-05-23T06:57:18.274Z,18.29
2023-05-23T06:59:47.585Z,18.60
2023-05-23T07:02:16.898Z,18.67
2023-05-23T07:04:49.575Z,18.72
2023-05-23T07:07:16.557Z,18.81
2023-05-23T07:09:43.607Z,18.78
2023-05-23T07:12:10.599Z,18.96
2023-05-23T07:14:40.606Z,19.04
2023-05-23T07:17:07.767Z,18.93
2023-05-23T07:19:37.004Z,19.02
2023-05-23T07:22:08.906Z,19.26
2023-05-23T07:24:37.232Z,19.17
2023-05-23T07:27:04.518Z,19.21
2023-05-23T07:29:33.644Z,19.35
2023-05-23T07:32:03.257Z,19.25
2023-05-23T07:34:30.764Z,19.28
2023-05-23T07:36:57.899Z,19.39
2023-05-23T07:39:25.786Z,19.50
2023-05-23T07:41:52.708Z,19.44
2023-05-23T07:44:24.858Z,19.28
2023-05-23T07:46:52.520Z,19.33
2023-05-23T07:49:21.768Z,19.38
2023-05-23T07:51:51.335Z,19.32
2023-05-23T07:54:18.354Z,19.30
2023-05-23T07:56:50.021Z,19.35
2023-05-23T07:59:19.555Z,19.32
2023-05-23T08:01:50.709Z,19.31
2023-05-23T08:04:18.646Z,19.43
2023-05-23T08:07:00.652Z,19.42
2023-05-23T08:09:31.645Z,19.24
2023-05-23T08:11:58.684Z,19.22
2023-05-23T08:14:38.771Z,19.25
2023-05-23T08:17:16.535Z,19.39
2023-05-23T08:19:46.185Z,19.31
2023-05-23T08:22:15.502Z,19.41
2023-05-23T08:24:42.524Z,19.44
2023-05-23T08:27:09.748Z,19.07
2023-05-23T08:29:37.322Z,19.06
2023-05-23T08:32:06.927Z,18.73
2023-05-23T08:34:38.541Z,18.76
2023-05-23T08:37:07.892Z,18.64
2023-05-23T08:39:42.084Z,18.52
2023-05-23T08:42:09.166Z,18.49
2023-05-23T08:44:38.726Z,18.39
2023-05-23T08:47:05.926Z,18.63
2023-05-23T08:49:35.810Z,18.54
2023-05-23T08:52:10.877Z,18.77
2023-05-23T08:54:42.161Z,18.82
2023-05-23T08:57:09.185Z,19.07
2023-05-23T08:59:38.850Z,18.98
2023-05-23T09:02:13.797Z,19.13
2023-05-23T09:04:43.153Z,19.42
2023-05-23T09:07:12.044Z,19.40
2023-05-23T09:09:39.492Z,19.62
2023-05-23T09:12:06.892Z,19.73
2023-05-23T09:14:34.033Z,19.44
2023-05-23T09:17:04.620Z,19.44
2023-05-23T09:19:32.254Z,19.40
2023-05-23T09:22:05.625Z,19.25
2023-05-23T09:24:38.905Z,19.18
2023-05-23T09:27:07.425Z,19.54
2023-05-23T09:29:41.596Z,19.37
2023-05-23T09:32:20.021Z,19.12
2023-05-23T09:35:05.751Z,19.02
2023-05-23T09:37:40.865Z,18.61
2023-05-23T09:40:14.486Z,18.64
2023-05-23T09:42:46.345Z,18.75
2023-05-23T09:45:15.489Z,18.60
2023-05-23T09:47:52.988Z,18.69
2023-05-23T09:50:23.645Z,18.77
2023-05-23T09:52:54.348Z,18.96
2023-05-23T09:55:25.972Z,18.89
2023-05-23T09:57:58.963Z,18.57
2023-05-23T10:00:27.271Z,18.70
2023-05-23T10:03:10.707Z,18.90
2023-05-23T10:05:52.844Z,18.72
2023-05-23T10:08:40.404Z,18.63
2023-05-23T10:11:35.637Z,18.46
2023-05-23T10:14:10.863Z,18.26
2023-05-23T10:17:07.010Z,17.91
2023-05-23T10:19:52.256Z,17.78
2023-05-23T10:22:20.068Z,17.44
2023-05-23T10:24:48.924Z,17.20
2023-05-23T10:27:16.132Z,17.18
2023-05-23T10:29:46.842Z,17.20
2023-05-23T10:32:15.110Z,17.06
2023-05-23T10:35:04.567Z,17.02
2023-05-23T10:38:00.081Z,17.04
2023-05-23T10:40:26.980Z,16.75
2023-05-23T10:43:08.173Z,16.51
2023-05-23T10:45:44.481Z,16.55
2023-05-23T10:48:36.407Z,16.23
2023-05-23T10:51:06.892Z,16.42
2023-05-23T10:53:40.059Z,16.65
2023-05-23T10:56:19.622Z,16.58
2023-05-23T10:58:46.710Z,16.63
2023-05-23T11:01:20.069Z,16.95
2023-05-23T11:03:48.186Z,16.85
2023-05-23T11:06:38.486Z,16.69
2023-05-23T11:09:27.788Z,16.53
2023-05-23T11:12:05.827Z,16.69
2023-05-23T11:14:33.792Z,16.59
2023-05-23T11:17:22.025Z,16.61
2023-05-23T11:20:13.420Z,16.55
2023-05-23T11:22:42.324Z,16.58
2023-05-23T11:25:10.392Z,16.22
2023-05-23T11:27:41.897Z,16.40
2023-05-23T11:30:15.899Z,16.41
2023-05-23T11:32:53.979Z,16.32
2023-05-23T11:35:23.860Z,16.31
2023-05-23T11:37:50.992Z,16.66
2023-05-23T11:40:28.228Z,16.74
2023-05-23T11:43:08.279Z,16.75
2023-05-23T11:45:37.858Z,16.66
2023-05-23T11:48:18.103Z,16.65
2023-05-23T11:50:49.372Z,16.60
2023-05-23T11:53:19.144Z,16.69
2023-05-23T11:56:00.818Z,16.59
2023-05-23T11:58:33.702Z,16.67
2023-05-23T12:01:09.726Z,17.01
2023-05-23T12:03:52.465Z,16.95
2023-05-23T12:06:20.144Z,17.07
2023-05-23T12:08:52.380Z,17.19
2023-05-23T12:11:19.399Z,17.50
2023-05-23T12:13:46.533Z,17.88
2023-05-23T12:16:16.710Z,18.36
2023-05-23T12:18:46.440Z,18.05
2023-05-23T12:21:13.454Z,18.47
2023-05-23T12:23:42.112Z,18.74
2023-05-23T12:26:10.324Z,19.31
2023-05-23T12:28:45.809Z,19.63
2023-05-23T12:31:21.410Z,20.23
2023-05-23T12:33:49.609Z,19.87
2023-05-23T12:36:24.364Z,19.85
2023-05-23T12:38:54.061Z,19.81
2023-05-23T12:41:22.178Z,19.91
2023-05-23T12:43:56.989Z,20.64
2023-05-23T12:46:29.442Z,20.52
2023-05-23T12:49:01.335Z,20.16
2023-05-23T12:51:30.960Z,20.44
2023-05-23T12:54:00.485Z,20.41
2023-05-23T12:58:57.093Z,21.05
2023-05-23T13:01:24.509Z,20.62
2023-05-23T13:03:57.047Z,20.31
2023-05-23T13:06:26.644Z,20.48
2023-05-23T13:08:56.280Z,20.79
2023-05-23T13:11:23.310Z,20.29
2023-05-23T13:13:54.071Z,20.61
2023-05-23T13:16:21.250Z,20.68
2023-05-23T13:18:48.503Z,20.43
2023-05-23T13:21:18.296Z,20.49
2023-05-23T13:23:48.436Z,20.94
2023-05-23T13:26:15.655Z,21.44
2023-05-23T13:28:42.783Z,21.66
2023-05-23T13:31:09.984Z,21.84
2023-05-23T13:33:38.176Z,21.84
2023-05-23T13:36:05.678Z,21.70
2023-05-23T13:38:32.633Z,21.68
2023-05-23T13:40:59.776Z,21.33
2023-05-23T13:43:31.425Z,21.13
2023-05-23T13:46:02.813Z,21.11
2023-05-23T13:48:32.470Z,20.71
2023-05-23T13:50:59.621Z,20.82
2023-05-23T13:53:27.509Z,20.53
2023-05-23T13:55:54.895Z,20.59
2023-05-23T13:58:21.909Z,20.51
2023-05-23T14:00:48.942Z,20.45
2023-05-23T14:03:20.208Z,19.82
2023-05-23T14:05:49.672Z,19.98
2023-05-23T14:08:16.850Z,19.87
2023-05-23T14:10:44.100Z,20.06
2023-05-23T14:13:12.012Z,19.38
2023-05-23T14:15:42.651Z,19.62
2023-05-23T14:18:12.736Z,19.71
2023-05-23T14:20:39.909Z,19.39
2023-05-23T14:23:07.047Z,19.37
2023-05-23T14:25:34.119Z,19.31
2023-05-23T14:28:01.321Z,19.04
2023-05-23T14:30:28.338Z,19.11
2023-05-23T14:32:57.890Z,19.49
2023-05-23T14:35:26.290Z,19.77
2023-05-23T14:37:55.686Z,19.60
2023-05-23T14:40:24.934Z,19.95
2023-05-23T14:42:52.341Z,19.74
2023-05-23T14:45:22.434Z,19.76
2023-05-23T14:47:56.668Z,19.56
2023-05-23T14:50:23.659Z,19.61
2023-05-23T14:52:50.687Z,19.72
2023-05-23T14:55:17.771Z,19.73
2023-05-23T14:57:44.744Z,19.80
2023-05-23T15:00:13.337Z,20.22
2023-05-23T15:02:40.497Z,20.10
2023-05-23T15:05:08.716Z,19.65
2023-05-23T15:07:36.044Z,19.66
2023-05-23T15:10:04.122Z,19.56
2023-05-23T15:12:31.183Z,19.26
2023-05-23T15:15:03.540Z,19.34
2023-05-23T15:17:35.441Z,19.22
2023-05-23T15:20:04.438Z,19.06
2023-05-23T15:22:39.400Z,19.02
2023-05-23T15:25:08.384Z,19.22
2023-05-23T15:27:38.633Z,19.07
2023-05-23T15:30:06.730Z,18.82
2023-05-23T15:32:34.052Z,18.79
2023-05-23T15:35:01.095Z,18.89
2023-05-23T15:37:28.095Z,18.75
2023-05-23T15:39:57.065Z,18.35
2023-05-23T15:42:24.154Z,18.09
2023-05-23T15:44:51.241Z,18.32
2023-05-23T15:47:18.875Z,18.53
2023-05-23T15:49:45.953Z,18.15
2023-05-23T15:52:13.308Z,18.41
2023-05-23T15:54:40.563Z,18.37
2023-05-23T15:57:11.082Z,18.75
2023-05-23T15:59:41.566Z,18.79
2023-05-23T16:02:11.462Z,18.96
2023-05-23T16:04:44.058Z,18.53
2023-05-23T16:07:12.309Z,18.20
2023-05-23T16:10:00.871Z,18.50
2023-05-23T16:12:33.673Z,18.77
2023-05-23T16:15:13.880Z,18.49
2023-05-23T16:18:52.754Z,17.88
2023-05-23T16:21:24.791Z,17.91
2023-05-23T16:23:51.796Z,17.78
2023-05-23T16:26:19.321Z,17.84
2023-05-23T16:28:46.485Z,18.02
2023-05-23T16:31:21.604Z,17.85
2023-05-23T16:33:51.114Z,17.89
2023-05-23T16:36:22.031Z,17.58
2023-05-23T16:38:55.567Z,17.38
2023-05-23T16:41:23.094Z,16.98
2023-05-23T16:43:57.249Z,17.21
2023-05-23T16:46:24.424Z,17.33
2023-05-23T16:48:54.523Z,17.38
2023-05-23T16:51:21.790Z,17.22
2023-05-23T16:53:51.190Z,17.46
2023-05-23T16:56:18.266Z,17.42
2023-05-23T16:58:49.893Z,17.22
2023-05-23T17:01:19.954Z,16.96
2023-05-23T17:03:50.396Z,16.66
2023-05-23T17:06:24.163Z,16.41
2023-05-23T17:08:54.490Z,16.78
2023-05-23T17:11:21.886Z,16.63
2023-05-23T17:13:53.513Z,16.76
2023-05-23T17:16:20.917Z,16.81
2023-05-23T17:18:48.564Z,16.63
2023-05-23T17:21:15.795Z,16.92
2023-05-23T17:23:45.149Z,16.98
2023-05-23T17:26:12.229Z,17.01
2023-05-23T17:28:39.552Z,16.90
2023-05-23T17:31:08.943Z,16.91
2023-05-23T17:33:38.909Z,16.94
2023-05-23T17:36:11.470Z,16.97
2023-05-23T17:38:39.345Z,17.15
2023-05-23T17:41:09.283Z,16.86
2023-05-23T17:43:39.177Z,16.88
2023-05-23T17:46:08.572Z,16.71
2023-05-23T17:48:47.068Z,16.54
2023-05-23T17:51:15.967Z,16.44
2023-05-23T17:53:43.319Z,16.57
2023-05-23T17:56:10.919Z,16.75
2023-05-23T17:58:43.232Z,16.68
2023-05-23T18:01:14.510Z,16.46
2023-05-23T18:03:44.371Z,16.55
2023-05-23T18:06:11.685Z,16.46
2023-05-23T18:08:38.601Z,16.52
2023-05-23T18:11:08.924Z,16.42
2023-05-23T18:13:38.557Z,16.44
2023-05-23T18:16:07.986Z,16.16
2023-05-23T18:18:37.846Z,16.00
2023-05-23T18:21:08.645Z,16.02
2023-05-23T18:23:37.876Z,15.79
2023-05-23T18:26:05.036Z,15.55
2023-05-23T18:28:38.693Z,15.38
2023-05-23T18:31:05.734Z,15.66
2023-05-23T18:33:34.535Z,15.69
2023-05-23T18:36:04.303Z,15.43
2023-05-23T18:38:34.496Z,15.48
2023-05-23T18:41:01.666Z,15.41
2023-05-23T18:43:30.521Z,15.61
2023-05-23T18:45:58.172Z,15.61
2023-05-23T18:48:26.076Z,15.28
2023-05-23T18:50:53.909Z,15.15
2023-05-23T18:53:21.213Z,15.08
2023-05-23T18:55:48.217Z,15.10
2023-05-23T18:58:15.978Z,15.28
2023-05-23T19:00:44.905Z,15.31
2023-05-23T19:03:13.130Z,15.46
2023-05-23T19:05:42.973Z,15.26
2023-05-23T19:08:13.049Z,15.05
2023-05-23T19:10:42.321Z,14.82
2023-05-23T19:13:11.091Z,15.12
2023-05-23T19:15:38.718Z,14.89
2023-05-23T19:18:05.833Z,15.21
2023-05-23T19:20:33.281Z,14.85
2023-05-23T19:23:01.255Z,14.89
2023-05-23T19:25:28.472Z,14.94
2023-05-23T19:27:55.777Z,14.96
2023-05-23T19:30:25.382Z,14.93
2023-05-23T19:33:01.244Z,14.90
2023-05-23T19:35:31.439Z,14.99
2023-05-23T19:38:01.478Z,14.85
2023-05-23T19:40:28.685Z,15.08
2023-05-23T19:43:00.351Z,14.98
2023-05-23T19:45:28.662Z,14.91
2023-05-23T19:47:57.608Z,15.21
2023-05-23T19:50:26.854Z,14.96
2023-05-23T19:52:53.923Z,15.15
2023-05-23T19:55:23.329Z,15.11
2023-05-23T19:57:50.652Z,14.85
2023-05-23T20:00:18.352Z,14.99
2023-05-23T20:02:48.332Z,14.82
2023-05-23T20:05:18.831Z,14.56
2023-05-23T20:07:48.289Z,14.62
2023-05-23T20:10:18.254Z,14.66
2023-05-23T20:12:45.360Z,14.49
2023-05-23T20:15:12.359Z,14.39
2023-05-23T20:17:39.414Z,14.48
2023-05-23T20:20:07.641Z,14.66
2023-05-23T20:22:34.766Z,14.56
2023-05-23T20:25:07.807Z,14.77
2023-05-23T20:27:34.789Z,14.50
2023-05-23T20:30:01.943Z,14.52
2023-05-23T20:32:28.911Z,14.25
2023-05-23T20:35:01.050Z,14.44
2023-05-23T20:37:30.693Z,14.47
2023-05-23T20:39:58.082Z,14.32
2023-05-23T20:42:26.705Z,14.30
2023-05-23T20:44:56.936Z,14.33
2023-05-23T20:47:26.260Z,14.25
2023-05-23T20:49:56.183Z,13.99
2023-05-23T20:52:26.239Z,14.15
2023-05-23T20:54:55.846Z,14.11
2023-05-23T20:57:25.550Z,14.18
2023-05-23T20:59:59.771Z,14.30
2023-05-23T21:02:27.116Z,14.12
2023-05-23T21:04:56.605Z,14.23
2023-05-23T21:07:23.603Z,14.19
2023-05-23T21:09:52.993Z,14.14
2023-05-23T21:12:22.352Z,14.08
2023-05-23T21:14:54.130Z,14.17
2023-05-23T21:17:23.962Z,14.23
2023-05-23T21:19:51.369Z,14.29
2023-05-23T21:22:20.772Z,14.58
2023-05-23T21:24:52.653Z,14.34
2023-05-23T21:27:21.933Z,14.45
2023-05-23T21:29:48.884Z,14.51
2023-05-23T21:32:18.393Z,14.43
2023-05-23T21:34:49.953Z,14.29
2023-05-23T21:37:17.048Z,14.37
2023-05-23T21:39:52.096Z,14.26
2023-05-23T21:42:24.704Z,14.35
2023-05-23T21:44:51.779Z,14.33
2023-05-23T21:47:21.160Z,14.29
2023-05-23T21:49:48.158Z,14.33
2023-05-23T21:52:19.621Z,14.45
2023-05-23T21:54:51.744Z,14.35
2023-05-23T21:57:21.069Z,14.04
2023-05-23T21:59:50.649Z,14.04
2023-05-23T22:02:17.807Z,13.95
2023-05-23T22:04:46.133Z,14.20
2023-05-23T22:07:13.192Z,14.36
2023-05-23T22:09:44.622Z,14.25
2023-05-23T22:12:14.476Z,14.27
2023-05-23T22:14:41.548Z,14.03
2023-05-23T22:17:14.239Z,14.15
2023-05-23T22:19:41.894Z,14.06
2023-05-23T22:22:09.908Z,14.03
2023-05-23T22:24:36.901Z,14.09
2023-05-23T22:27:04.209Z,14.20
2023-05-23T22:29:31.303Z,14.08
2023-05-23T22:32:00.847Z,13.86
2023-05-23T22:34:30.410Z,13.80
2023-05-23T22:36:59.830Z,13.88
2023-05-23T22:39:27.609Z,13.90
2023-05-23T22:42:01.989Z,13.76
2023-05-23T22:44:34.045Z,13.96
2023-05-23T22:47:03.696Z,13.80
2023-05-23T22:49:32.997Z,13.76
2023-05-23T22:52:04.924Z,13.63
2023-05-23T22:54:34.089Z,13.72
2023-05-23T22:57:01.238Z,13.66
2023-05-23T22:59:30.004Z,13.17
2023-05-23T23:01:59.142Z,13.07
2023-05-23T23:04:30.781Z,13.12
2023-05-23T23:07:02.660Z,13.21
2023-05-23T23:09:29.677Z,13.22
2023-05-23T23:11:56.739Z,13.03
2023-05-23T23:14:26.742Z,12.91
2023-05-23T23:16:54.472Z,13.02
2023-05-23T23:19:22.064Z,13.08
2023-05-23T23:21:54.186Z,12.98
2023-05-23T23:24:24.104Z,13.14
2023-05-23T23:26:51.111Z,13.14
2023-05-23T23:29:20.326Z,13.13
2023-05-23T23:31:52.855Z,12.87
2023-05-23T23:34:19.848Z,12.86
2023-05-23T23:36:46.779Z,12.68
2023-05-23T23:39:13.796Z,12.79
2023-05-23T23:41:43.351Z,12.65
2023-05-23T23:44:13.005Z,12.67
2023-05-23T23:46:40.109Z,12.51
2023-05-23T23:49:09.212Z,12.25
2023-05-23T23:51:38.446Z,12.37
2023-05-23T23:54:05.536Z,12.37
2023-05-23T23:56:36.516Z,12.34
2023-05-23T23:59:06.122Z,12.16
